Time;durP1;ratioP1;P1;durP2;ratioP2;P2;SDS_P1;SDS_P2;PMS_P1;PMS_P2;Temp;Humidity;BMP_temperature;BMP_pressure;BME280_temperature;BME280_humidity;BME280_pressure;Samples;Min_cycle;Max_cycle;Signal;HPM_P1;HPM_P2
2021/11/26 00:00:13;;;;;;;;;35.67;33.33;;;;;1.54;74.53;102012.94;4842431;29;9716;-69
2021/11/26 00:03:09;;;;;;;;;34.33;33.67;;;;;1.63;73.89;102011.50;4812712;29;8871;-70
2021/11/26 00:06:04;;;;;;;;;36.67;35.67;;;;;1.60;73.28;102011.13;4824769;29;8863;-70
2021/11/26 00:09:00;;;;;;;;;31.33;30.00;;;;;1.34;74.38;102002.41;4824197;29;8895;-70
2021/11/26 00:11:57;;;;;;;;;44.33;37.00;;;;;1.39;74.56;101996.25;4824270;29;8872;-70
2021/11/26 00:15:09;;;;;;;;;30.33;30.33;;;;;1.37;74.09;101991.00;4841576;29;8888;-70
2021/11/26 00:18:16;;;;;;;;;36.33;36.33;;;;;1.21;75.02;101997.16;4841931;29;8881;-70
2021/11/26 00:21:12;;;;;;;;;33.33;31.00;;;;;1.28;74.98;101981.53;4840534;29;8877;-69
2021/11/26 00:24:08;;;;;;;;;41.67;34.00;;;;;1.30;75.42;101981.28;4840515;29;8872;-70
2021/11/26 00:27:04;;;;;;;;;37.33;34.33;;;;;1.28;75.05;101975.25;4829779;29;8899;-70
2021/11/26 00:30:00;;;;;;;;;34.67;30.00;;;;;1.27;74.90;101968.97;4841938;29;8865;-70
2021/11/26 00:32:56;;;;;;;;;34.67;33.00;;;;;1.21;74.90;101969.09;4825534;29;8876;-70
2021/11/26 00:35:52;;;;;;;;;31.33;30.67;;;;;1.13;75.04;101964.00;4823752;29;8895;-70
2021/11/26 00:38:47;;;;;;;;;33.67;30.33;;;;;1.15;75.26;101953.69;4823532;29;8887;-70
2021/11/26 00:41:43;;;;;;;;;34.33;28.00;;;;;1.05;74.95;101960.56;4825424;29;8856;-69
2021/11/26 00:44:39;;;;;;;;;34.00;32.00;;;;;0.89;76.05;101960.44;4823696;29;8887;-68
2021/11/26 00:47:34;;;;;;;;;40.33;37.00;;;;;0.80;75.79;101958.06;4823578;29;8859;-69
2021/11/26 00:50:30;;;;;;;;;31.00;30.00;;;;;0.67;75.68;101952.00;4823474;29;8872;-69
2021/11/26 00:53:26;;;;;;;;;35.67;34.67;;;;;0.63;76.75;101942.66;4823262;29;8867;-68
2021/11/26 00:56:21;;;;;;;;;25.67;24.33;;;;;0.56;76.12;101923.69;4823455;29;8893;-70
2021/11/26 00:59:17;;;;;;;;;29.33;27.67;;;;;0.64;75.86;101920.63;4824062;29;8874;-69
2021/11/26 01:02:14;;;;;;;;;28.00;28.00;;;;;0.63;75.83;101929.03;4833320;29;8868;-68
2021/11/26 01:05:12;;;;;;;;;24.67;24.67;;;;;0.47;75.84;101909.59;4833486;29;8900;-69
2021/11/26 01:08:08;;;;;;;;;29.33;27.33;;;;;0.40;76.80;101903.41;4841504;29;8888;-69
2021/11/26 01:11:04;;;;;;;;;38.33;36.00;;;;;0.43;76.74;101907.56;4829444;29;9682;-70
2021/11/26 01:14:00;;;;;;;;;27.00;27.00;;;;;0.40;76.23;101903.41;4838545;29;8875;-70
2021/11/26 01:16:55;;;;;;;;;27.00;27.00;;;;;0.25;77.52;101905.75;4841145;29;8885;-69
2021/11/26 01:19:51;;;;;;;;;30.33;30.33;;;;;0.07;77.98;101897.63;4837718;29;8883;-69
2021/11/26 01:22:47;;;;;;;;;30.33;29.33;;;;;0.11;77.72;101896.94;4831944;29;9631;-69
2021/11/26 01:25:43;;;;;;;;;30.33;27.33;;;;;0.23;76.89;101899.69;4839246;29;8908;-69
2021/11/26 01:28:38;;;;;;;;;32.33;29.33;;;;;0.03;77.61;101894.56;4838249;29;8865;-69
2021/11/26 01:31:36;;;;;;;;;36.00;34.00;;;;;0.06;77.58;101898.69;4838894;29;8916;-68
2021/11/26 01:34:32;;;;;;;;;32.33;32.33;;;;;-0.01;77.60;101886.03;4841313;29;9664;-69
2021/11/26 01:37:28;;;;;;;;;37.00;33.67;;;;;0.00;77.77;101886.88;4841144;29;8876;-69
2021/11/26 01:40:24;;;;;;;;;36.33;35.00;;;;;0.15;77.05;101880.97;4841182;29;8872;-68
2021/11/26 01:43:20;;;;;;;;;33.33;31.33;;;;;0.28;76.50;101878.88;4839531;29;8857;-69
2021/11/26 01:46:16;;;;;;;;;39.67;39.67;;;;;0.20;76.52;101878.41;4847185;29;8970;-68
2021/11/26 01:49:13;;;;;;;;;37.33;34.33;;;;;0.07;76.87;101879.41;4859402;29;8890;-69
2021/11/26 01:52:08;;;;;;;;;24.67;21.33;;;;;-0.03;77.10;101874.56;4839450;29;8959;-69
2021/11/26 01:55:06;;;;;;;;;30.33;30.00;;;;;0.05;76.68;101873.38;4822902;29;8906;-69
2021/11/26 01:58:02;;;;;;;;;30.67;30.33;;;;;0.06;76.93;101866.06;4822709;29;8996;-69
2021/11/26 02:01:01;;;;;;;;;40.67;39.33;;;;;0.17;76.98;101862.56;4811174;29;8894;-69
2021/11/26 02:03:57;;;;;;;;;37.67;28.00;;;;;0.04;77.75;101860.03;4841274;29;8873;-69
2021/11/26 02:06:53;;;;;;;;;21.67;21.67;;;;;0.04;77.56;101857.31;4842763;29;8876;-69
2021/11/26 02:09:48;;;;;;;;;16.67;16.67;;;;;0.00;77.15;101856.97;4844520;29;8904;-69
2021/11/26 02:12:45;;;;;;;;;29.00;27.67;;;;;0.06;77.80;101852.44;4836437;29;8867;-69
2021/11/26 02:15:42;;;;;;;;;24.67;24.67;;;;;0.11;77.19;101856.16;4825907;29;8867;-69
2021/11/26 02:18:38;;;;;;;;;32.33;31.33;;;;;0.08;78.10;101853.03;4825957;29;8906;-69
2021/11/26 02:21:33;;;;;;;;;25.00;25.00;;;;;0.20;77.17;101852.03;4825857;29;8995;-69
2021/11/26 02:24:29;;;;;;;;;27.33;27.33;;;;;0.20;77.38;101846.56;4844148;29;8997;-69
2021/11/26 02:27:25;;;;;;;;;36.33;30.67;;;;;0.20;77.30;101854.75;4844103;29;8884;-69
2021/11/26 02:30:21;;;;;;;;;23.33;20.67;;;;;0.07;76.72;101857.66;4844282;29;9012;-69
2021/11/26 02:33:20;;;;;;;;;30.33;28.67;;;;;0.13;77.20;101864.06;4843623;29;8873;-69
2021/11/26 02:36:16;;;;;;;;;27.00;26.67;;;;;0.06;76.99;101856.00;4844111;29;8873;-69
2021/11/26 02:39:12;;;;;;;;;33.67;30.67;;;;;0.11;77.46;101855.31;4831632;29;8889;-69
2021/11/26 02:42:07;;;;;;;;;24.00;24.00;;;;;0.06;77.62;101853.28;4840458;29;8868;-69
2021/11/26 02:45:05;;;;;;;;;35.33;33.67;;;;;0.07;77.62;101854.94;4825480;29;8892;-68
2021/11/26 02:48:02;;;;;;;;;33.67;22.67;;;;;0.15;77.10;101840.16;4825442;29;8979;-69
2021/11/26 02:50:57;;;;;;;;;29.00;26.33;;;;;0.14;77.15;101843.97;4825296;29;8894;-69
2021/11/26 02:53:53;;;;;;;;;18.67;18.33;;;;;0.13;77.39;101851.28;4827547;29;8859;-69
2021/11/26 02:56:49;;;;;;;;;32.33;32.33;;;;;0.26;77.30;101837.47;4813088;29;8876;-69
2021/11/26 02:59:44;;;;;;;;;33.67;31.00;;;;;0.09;77.69;101843.84;4825360;29;8898;-69
2021/11/26 03:02:40;;;;;;;;;27.00;27.00;;;;;0.09;77.97;101835.69;4825632;29;9006;-68
2021/11/26 03:05:36;;;;;;;;;33.00;32.33;;;;;0.24;77.45;101830.63;4825378;29;9634;-69
2021/11/26 03:08:33;;;;;;;;;33.67;33.67;;;;;0.23;77.16;101831.66;4825537;29;8876;-68
2021/11/26 03:11:29;;;;;;;;;33.33;30.67;;;;;0.27;77.53;101835.59;4824940;29;8887;-68
2021/11/26 03:14:25;;;;;;;;;34.00;28.00;;;;;0.26;77.53;101845.66;4834935;29;8864;-69
2021/11/26 03:17:21;;;;;;;;;31.67;31.33;;;;;0.17;77.53;101838.06;4842720;29;8887;-70
2021/11/26 03:20:17;;;;;;;;;32.33;31.67;;;;;-0.09;78.61;101833.84;4842400;29;8891;-69
2021/11/26 03:23:14;;;;;;;;;31.00;31.00;;;;;-0.03;78.17;101830.22;4829599;29;8873;-69
2021/11/26 03:26:09;;;;;;;;;33.00;32.33;;;;;-0.01;78.22;101826.19;4843250;29;8876;-69
2021/11/26 03:29:05;;;;;;;;;37.00;30.33;;;;;0.15;77.96;101826.56;4842425;29;8911;-70
2021/11/26 03:32:01;;;;;;;;;28.00;28.00;;;;;0.13;78.17;101821.38;4842882;29;8872;-69
2021/11/26 03:34:56;;;;;;;;;33.67;31.00;;;;;0.03;78.62;101823.84;4824625;29;9680;-70
2021/11/26 03:37:54;;;;;;;;;30.00;30.00;;;;;0.19;77.85;101815.00;4824569;29;8883;-70
2021/11/26 03:40:49;;;;;;;;;29.00;29.00;;;;;0.11;78.17;101828.94;4824616;29;8907;-70
2021/11/26 03:43:46;;;;;;;;;30.00;30.00;;;;;0.04;78.68;101817.34;4816872;29;8852;-70
2021/11/26 03:46:41;;;;;;;;;24.67;19.33;;;;;0.07;78.47;101800.53;4829009;29;9112;-70
2021/11/26 03:49:37;;;;;;;;;33.33;31.67;;;;;0.13;77.90;101802.31;4834804;29;8875;-70
2021/11/26 03:52:33;;;;;;;;;32.67;31.67;;;;;0.13;78.81;101798.78;4835830;29;8881;-70
2021/11/26 03:55:30;;;;;;;;;35.33;27.67;;;;;0.10;79.22;101794.66;4824463;29;8898;-70
2021/11/26 03:58:25;;;;;;;;;31.00;30.00;;;;;0.21;78.99;101796.53;4824290;29;8899;-70
2021/11/26 04:01:21;;;;;;;;;39.00;30.33;;;;;0.23;78.56;101793.56;4827920;29;9721;-70
2021/11/26 04:04:17;;;;;;;;;30.33;29.33;;;;;0.27;78.37;101784.72;4813072;29;8891;-70
2021/11/26 04:07:12;;;;;;;;;30.00;30.00;;;;;0.27;78.52;101797.50;4812054;29;8891;-70
2021/11/26 04:10:10;;;;;;;;;29.67;28.67;;;;;0.18;79.00;101793.47;4824210;29;8898;-70
2021/11/26 04:13:08;;;;;;;;;38.33;35.33;;;;;0.19;79.19;101790.50;4826166;29;8936;-70
2021/11/26 04:16:06;;;;;;;;;34.67;33.67;;;;;0.34;78.61;101784.59;4812453;29;8875;-70
2021/11/26 04:19:03;;;;;;;;;40.00;32.33;;;;;0.21;78.95;101782.09;4823997;29;8895;-70
2021/11/26 04:21:59;;;;;;;;;30.00;30.00;;;;;0.27;78.88;101782.00;4824155;29;8919;-70
2021/11/26 04:24:55;;;;;;;;;34.67;34.67;;;;;0.26;79.17;101772.19;4838850;29;8880;-70
2021/11/26 04:27:51;;;;;;;;;36.67;35.33;;;;;0.26;78.95;101774.91;4830975;29;8873;-68
2021/11/26 04:30:46;;;;;;;;;35.33;33.00;;;;;0.41;79.02;101781.78;4823519;29;8891;-69
2021/11/26 04:33:42;;;;;;;;;43.00;39.33;;;;;0.42;79.34;101786.97;4833407;29;8872;-69
2021/11/26 04:36:38;;;;;;;;;27.33;27.00;;;;;0.43;79.33;101771.47;4841921;29;8869;-69
2021/11/26 04:39:33;;;;;;;;;43.00;38.33;;;;;0.47;79.22;101761.78;4842565;29;8903;-71
2021/11/26 04:42:29;;;;;;;;;37.00;34.67;;;;;0.57;79.87;101774.78;4841610;29;8869;-69
2021/11/26 04:45:25;;;;;;;;;28.67;27.33;;;;;0.69;79.71;101771.00;4830103;29;8919;-69
2021/11/26 04:48:22;;;;;;;;;40.00;39.67;;;;;0.69;79.06;101768.28;4836965;29;8863;-70
2021/11/26 04:51:18;;;;;;;;;34.33;34.33;;;;;0.83;79.50;101774.25;4823553;29;8864;-70
2021/11/26 04:54:13;;;;;;;;;40.67;38.00;;;;;0.72;80.13;101778.69;4832287;29;8952;-70
2021/11/26 04:57:09;;;;;;;;;35.33;35.33;;;;;0.88;79.92;101785.28;4828627;29;8884;-70
2021/11/26 05:00:06;;;;;;;;;37.00;37.00;;;;;0.89;79.72;101794.28;4841250;29;8865;-71
2021/11/26 05:03:02;;;;;;;;;36.33;36.33;;;;;0.81;79.90;101811.81;4829253;29;8920;-70
2021/11/26 05:05:59;;;;;;;;;42.67;40.00;;;;;0.81;79.98;101795.47;4826941;29;8860;-71
2021/11/26 05:08:55;;;;;;;;;48.33;44.33;;;;;0.85;79.50;101801.28;4823514;29;8939;-71
2021/11/26 05:11:52;;;;;;;;;34.33;33.00;;;;;0.85;79.93;101812.19;4823206;29;8876;-71
2021/11/26 05:14:48;;;;;;;;;42.00;37.67;;;;;0.81;80.03;101809.91;4817028;29;8895;-70
2021/11/26 05:17:44;;;;;;;;;40.00;34.00;;;;;0.85;80.02;101821.19;4841320;29;8865;-71
2021/11/26 05:20:40;;;;;;;;;36.67;35.33;;;;;0.92;79.37;101811.00;4841340;29;8857;-70
2021/11/26 05:23:36;;;;;;;;;39.00;39.00;;;;;0.77;80.11;101814.19;4832721;29;8863;-72
2021/11/26 05:26:32;;;;;;;;;38.00;38.00;;;;;0.87;80.36;101818.22;4823665;29;8870;-71
2021/11/26 05:29:27;;;;;;;;;52.33;44.00;;;;;1.03;80.01;101820.19;4826962;29;9695;-70
2021/11/26 05:32:23;;;;;;;;;30.67;28.67;;;;;1.06;79.49;101809.63;4841078;29;8881;-71
2021/11/26 05:35:19;;;;;;;;;51.00;46.00;;;;;1.06;80.05;101815.06;4827528;29;8869;-71
2021/11/26 05:38:18;;;;;;;;;53.33;49.00;;;;;1.13;79.58;101811.41;4839527;29;8857;-71
2021/11/26 05:41:13;;;;;;;;;46.67;45.33;;;;;1.18;79.05;101806.88;4843565;29;8868;-71
2021/11/26 05:44:09;;;;;;;;;75.33;56.00;;;;;1.11;79.31;101796.13;4844959;29;8877;-71
2021/11/26 05:47:05;;;;;;;;;40.67;40.67;;;;;1.24;79.39;101805.94;4833575;29;8972;-69
2021/11/26 05:50:02;;;;;;;;;54.33;47.33;;;;;1.37;79.25;101794.72;4844686;29;8957;-70
2021/11/26 05:52:58;;;;;;;;;47.33;40.33;;;;;1.42;79.38;101793.19;4843998;29;8861;-70
2021/11/26 05:55:57;;;;;;;;;30.00;25.33;;;;;1.37;79.99;101807.53;4844833;29;8895;-69
2021/11/26 05:58:54;;;;;;;;;56.00;47.00;;;;;1.43;79.75;101792.94;4831925;29;8889;-69
2021/11/26 06:01:49;;;;;;;;;47.67;44.33;;;;;1.46;79.42;101807.97;4844409;29;8880;-72
2021/11/26 06:04:45;;;;;;;;;68.00;51.67;;;;;1.57;79.06;101813.41;4844614;29;8899;-69
2021/11/26 06:07:41;;;;;;;;;65.67;52.33;;;;;1.62;78.90;101812.69;4844704;29;8889;-69
2021/11/26 06:10:37;;;;;;;;;54.67;47.67;;;;;1.64;78.92;101805.91;4832072;29;8963;-70
2021/11/26 06:13:33;;;;;;;;;57.00;48.33;;;;;1.79;78.74;101810.81;4833205;29;8902;-70
2021/11/26 06:16:29;;;;;;;;;53.67;47.00;;;;;1.93;78.39;101816.78;4826879;29;8860;-71
2021/11/26 06:19:24;;;;;;;;;50.67;44.67;;;;;1.95;78.07;101807.28;4825914;29;8880;-72
2021/11/26 06:22:20;;;;;;;;;83.00;64.00;;;;;2.12;77.96;101818.19;4840894;29;8873;-71
2021/11/26 06:25:18;;;;;;;;;72.33;59.00;;;;;2.29;77.71;101807.28;4844287;29;8979;-71
2021/11/26 06:28:14;;;;;;;;;94.33;67.00;;;;;2.33;77.58;101804.91;4841452;29;8860;-71
2021/11/26 06:30:46;;;;;;;;;72.67;58.67;;;;;2.31;77.54;101799.69;4832235;29;8880;-71
2021/11/26 06:33:14;;;;;;;;;67.33;56.00;;;;;2.43;77.30;101792.22;4833361;29;8877;-72
2021/11/26 06:35:50;;;;;;;;;65.33;50.00;;;;;2.61;77.36;101807.53;4814491;29;8876;-72
2021/11/26 06:38:18;;;;;;;;;62.33;49.67;;;;;2.71;77.16;101815.03;4839161;29;9007;-72
2021/11/26 06:40:55;;;;;;;;;83.00;65.00;;;;;2.83;77.07;101821.22;4842559;29;8904;-71
2021/11/26 06:43:23;;;;;;;;;62.00;51.00;;;;;2.90;76.85;101830.06;4826612;29;8885;-74
2021/11/26 06:45:53;;;;;;;;;65.33;57.00;;;;;2.99;77.15;101822.25;4842648;29;9007;-71
2021/11/26 06:48:25;;;;;;;;;107.67;74.00;;;;;3.15;76.92;101831.50;4839389;29;8993;-71
2021/11/26 06:51:07;;;;;;;;;89.67;64.33;;;;;3.25;76.74;101818.78;4827238;29;8903;-71
2021/11/26 06:53:36;;;;;;;;;74.33;59.33;;;;;3.32;76.53;101824.88;4842044;29;8880;-71
2021/11/26 06:56:04;;;;;;;;;57.00;49.00;;;;;3.46;76.15;101827.25;4826529;29;8868;-70
2021/11/26 06:58:37;;;;;;;;;60.67;50.33;;;;;3.52;76.57;101827.03;4842308;29;9016;-70
2021/11/26 07:01:06;;;;;;;;;59.33;50.00;;;;;3.63;76.01;101817.88;4828551;29;8952;-71
2021/11/26 07:03:42;;;;;;;;;70.00;57.33;;;;;3.81;75.95;101821.31;4845797;29;8877;-72
2021/11/26 07:06:37;;;;;;;;;78.67;63.67;;;;;4.14;75.36;101815.66;4841239;29;8877;-72
2021/11/26 07:09:06;;;;;;;;;66.33;55.33;;;;;4.26;75.18;101818.19;4842190;29;9634;-71
2021/11/26 07:11:37;;;;;;;;;57.00;49.33;;;;;4.38;74.67;101813.38;4825462;29;8873;-71
2021/11/26 07:14:18;;;;;;;;;74.00;59.00;;;;;4.58;74.26;101803.63;4841230;29;11778;-71
2021/11/26 07:17:04;;;;;;;;;55.33;47.00;;;;;4.67;73.63;101813.81;4842176;29;8893;-71
2021/11/26 07:19:50;;;;;;;;;66.67;55.67;;;;;4.75;73.90;101807.03;4842005;29;11749;-72
2021/11/26 07:22:19;;;;;;;;;61.33;50.67;;;;;5.01;73.52;101797.06;4826132;29;8869;-71
2021/11/26 07:24:50;;;;;;;;;58.50;49.75;;;;;5.13;73.01;101794.06;4838989;29;11764;-72
2021/11/26 07:27:22;;;;;;;;;39.75;38.25;;;;;5.23;72.54;101797.69;4828594;29;11792;-72
2021/11/26 07:30:06;;;;;;;;;39.25;36.75;;;;;5.43;72.51;101782.41;4838090;29;11796;-70
2021/11/26 07:32:44;;;;;;;;;73.67;59.67;;;;;5.51;72.17;101782.69;4826875;29;11782;-72
2021/11/26 07:35:16;;;;;;;;;35.25;32.50;;;;;5.68;71.83;101796.19;4842037;29;8881;-72
2021/11/26 07:37:44;;;;;;;;;73.75;57.25;;;;;5.57;71.73;101803.56;4841714;29;12586;-73
2021/11/26 07:40:16;;;;;;;;;49.25;39.75;;;;;5.89;71.44;101799.78;4841359;29;12471;-71
2021/11/26 07:43:17;;;;;;;;;35.75;34.25;;;;;6.10;70.84;101793.25;4841449;29;11857;-72
2021/11/26 07:45:48;;;;;;;;;42.00;40.00;;;;;6.24;69.94;101790.78;4841585;29;11749;-72
2021/11/26 07:48:25;;;;;;;;;41.00;39.50;;;;;6.30;69.87;101794.38;4841485;29;12558;-72
2021/11/26 07:50:55;;;;;;;;;40.75;39.50;;;;;6.32;70.29;101798.47;4825367;29;12529;-72
2021/11/26 07:53:23;;;;;;;;;50.75;42.75;;;;;6.42;69.65;101792.16;4836938;29;11766;-72
2021/11/26 07:56:07;;;;;;;;;47.50;40.75;;;;;6.77;68.92;101796.78;4839906;29;11867;-72
2021/11/26 07:58:35;;;;;;;;;46.75;38.75;;;;;6.77;68.82;101788.53;4841261;29;11806;-69
2021/11/26 08:01:02;;;;;;;;;31.75;31.75;;;;;6.94;67.69;101783.53;4841414;29;11872;-69
2021/11/26 08:03:31;;;;;;;;;35.00;34.25;;;;;7.18;67.46;101783.72;4841431;29;11866;-68
2021/11/26 08:06:07;;;;;;;;;35.25;35.25;;;;;7.07;66.90;101779.38;4802003;29;11875;-69
2021/11/26 08:08:35;;;;;;;;;49.75;41.75;;;;;7.10;67.39;101776.03;4792973;29;11846;-69
2021/11/26 08:11:08;;;;;;;;;47.25;38.25;;;;;7.37;67.17;101774.84;4808394;29;11836;-69
2021/11/26 08:13:37;;;;;;;;;39.75;37.25;;;;;7.51;66.86;101753.81;4832781;29;11748;-68
2021/11/26 08:16:34;;;;;;;;;37.25;36.75;;;;;7.76;66.10;101752.84;4834075;29;11871;-67
2021/11/26 08:19:30;;;;;;;;;37.00;35.50;;;;;7.87;65.66;101748.91;4833881;29;11807;-68
2021/11/26 08:22:26;;;;;;;;;39.00;38.50;;;;;8.15;64.61;101747.31;4837502;29;11729;-68
2021/11/26 08:25:26;;;;;;;;;33.50;32.25;;;;;8.23;64.19;101745.88;4830711;29;11746;-69
2021/11/26 08:28:22;;;;;;;;;28.75;28.00;;;;;8.28;64.18;101727.34;4832275;29;11739;-68
2021/11/26 08:31:18;;;;;;;;;29.25;29.25;;;;;8.32;64.00;101717.38;4831668;29;11899;-68
2021/11/26 08:34:14;;;;;;;;;26.75;21.50;;;;;8.29;63.78;101720.72;4832360;29;11881;-68
2021/11/26 08:37:10;;;;;;;;;26.50;25.00;;;;;8.40;64.20;101715.13;4820849;29;11841;-69
2021/11/26 08:40:07;;;;;;;;;32.50;32.00;;;;;8.70;63.46;101706.53;4835042;29;11677;-68
2021/11/26 08:43:03;;;;;;;;;41.00;38.25;;;;;8.74;63.35;101713.13;4832312;29;11829;-68
2021/11/26 08:46:00;;;;;;;;;47.50;40.25;;;;;8.80;63.40;101706.41;4832231;29;11774;-68
2021/11/26 08:48:56;;;;;;;;;28.50;26.75;;;;;8.89;62.82;101695.53;4832889;29;11742;-68
2021/11/26 08:51:54;;;;;;;;;36.00;36.00;;;;;9.10;62.52;101696.91;4838860;29;11794;-69
2021/11/26 08:54:50;;;;;;;;;35.00;33.00;;;;;9.39;61.79;101702.31;4833031;29;12357;-68
2021/11/26 08:57:53;;;;;;;;;34.75;34.00;;;;;9.57;61.41;101700.66;4837966;29;11723;-68
2021/11/26 09:00:49;;;;;;;;;28.00;28.00;;;;;9.66;61.29;101698.88;4832789;29;11658;-68
2021/11/26 09:03:49;;;;;;;;;37.25;31.75;;;;;9.76;60.46;101700.66;4832591;29;11768;-68
2021/11/26 09:06:45;;;;;;;;;28.25;28.25;;;;;10.11;59.95;101701.16;4832130;29;11682;-68
2021/11/26 09:09:42;;;;;;;;;33.00;32.75;;;;;9.80;60.38;101698.09;4831838;29;11818;-68
2021/11/26 09:12:39;;;;;;;;;29.25;29.25;;;;;10.03;60.16;101686.09;4831833;29;11656;-68
2021/11/26 09:15:37;;;;;;;;;55.75;45.75;;;;;9.92;60.29;101685.47;4819257;29;11693;-69
2021/11/26 09:18:32;;;;;;;;;43.75;39.25;;;;;10.04;60.59;101682.22;4833900;29;11842;-68
2021/11/26 09:21:28;;;;;;;;;25.25;25.25;;;;;10.28;58.52;101687.66;4835698;29;11684;-68
2021/11/26 09:24:24;;;;;;;;;46.75;41.50;;;;;9.89;60.87;101669.50;4819586;29;11704;-68
2021/11/26 09:27:19;;;;;;;;;30.50;30.50;;;;;10.02;59.92;101662.34;4836900;29;11856;-68
2021/11/26 09:30:20;;;;;;;;;63.25;47.25;;;;;10.24;59.61;101665.31;4832917;29;11685;-67
2021/11/26 09:33:17;;;;;;;;;35.00;34.25;;;;;10.18;60.21;101655.44;4836024;29;11755;-68
2021/11/26 09:36:13;;;;;;;;;33.75;32.50;;;;;10.44;58.97;101658.56;4833321;29;11716;-67
2021/11/26 09:39:09;;;;;;;;;40.75;37.00;;;;;10.42;58.99;101655.28;4832289;29;11687;-68
2021/11/26 09:42:06;;;;;;;;;25.75;23.00;;;;;9.83;60.02;101647.78;4832056;29;12443;-67
2021/11/26 09:45:03;;;;;;;;;36.25;34.25;;;;;9.85;60.59;101657.41;4834968;29;11706;-66
2021/11/26 09:47:59;;;;;;;;;79.75;62.75;;;;;9.67;61.06;101650.00;4834475;29;11776;-66
2021/11/26 09:50:55;;;;;;;;;36.75;35.25;;;;;9.52;61.95;101641.94;4835333;29;11752;-66
2021/11/26 09:53:51;;;;;;;;;36.75;36.75;;;;;9.55;61.75;101636.63;4823782;29;11719;-67
2021/11/26 09:56:47;;;;;;;;;72.50;47.00;;;;;9.19;62.82;101631.66;4840589;29;11697;-65
2021/11/26 09:59:45;;;;;;;;;38.75;37.00;;;;;9.07;63.20;101619.44;4833813;29;12193;-68
2021/11/26 10:03:10;;;;;;;;;42.25;37.00;;;;;8.88;64.15;101628.50;4822191;29;11875;-71
2021/11/26 10:06:28;;;;;;;;;36.75;36.50;;;;;8.99;63.79;101626.44;4823409;29;12530;-70
2021/11/26 10:09:24;;;;;;;;;34.25;33.25;;;;;8.73;64.46;101625.13;4821763;29;11699;-70
2021/11/26 10:11:54;;;;;;;;;44.50;40.50;;;;;8.73;65.28;101622.38;4832162;29;12619;-71
2021/11/26 10:14:53;;;;;;;;;55.00;46.00;;;;;8.64;65.22;101612.00;4829317;29;11755;-72
2021/11/26 10:17:49;;;;;;;;;52.25;41.50;;;;;8.77;65.25;101604.94;4820118;29;11830;-71
2021/11/26 10:21:14;;;;;;;;;39.75;36.75;;;;;8.97;64.98;101614.91;4830306;29;11848;-71
2021/11/26 10:24:17;;;;;;;;;43.50;40.00;;;;;8.98;65.06;101621.22;4835654;29;11877;-71
2021/11/26 10:27:13;;;;;;;;;31.75;31.75;;;;;8.93;65.17;101621.28;4832289;29;11795;-71
2021/11/26 10:30:23;;;;;;;;;35.75;35.75;;;;;8.62;66.61;101628.03;4824405;29;11706;-71
2021/11/26 10:33:25;;;;;;;;;32.50;32.00;;;;;8.63;66.17;101610.38;4834470;29;11718;-72
2021/11/26 10:36:25;;;;;;;;;38.50;36.00;;;;;8.25;67.25;101614.09;4834804;29;11876;-70
2021/11/26 10:39:23;;;;;;;;;38.25;37.50;;;;;8.41;67.64;101598.25;4822687;29;11745;-72
2021/11/26 10:42:27;;;;;;;;;34.75;32.00;;;;;8.43;67.81;101590.50;4835719;29;11738;-71
2021/11/26 10:58:49;;;;;;;;;94.75;80.50;;;;;9.00;65.42;101594.97;4838715;29;11854;-71
2021/11/26 11:01:47;;;;;;;;;51.00;42.50;;;;;8.74;66.21;101597.28;4834558;29;11774;-71
2021/11/26 11:04:48;;;;;;;;;62.75;51.75;;;;;8.97;65.55;101586.44;4838102;29;11784;-74
2021/11/26 11:07:47;;;;;;;;;72.00;50.67;;;;;9.25;66.03;101585.47;4836456;29;11732;-70
2021/11/26 11:10:43;;;;;;;;;39.00;37.00;;;;;9.57;63.88;101583.84;4835491;29;8899;-69
2021/11/26 11:13:39;;;;;;;;;36.50;34.00;;;;;9.64;63.33;101585.09;4840097;29;11787;-68
2021/11/26 11:16:48;;;;;;;;;43.75;39.00;;;;;9.59;63.34;101587.16;4835653;29;11738;-68
2021/11/26 11:19:43;;;;;;;;;54.00;45.25;;;;;9.91;62.93;101586.31;4832623;29;11811;-69
2021/11/26 11:22:39;;;;;;;;;44.00;39.00;;;;;9.41;63.11;101575.00;4833405;29;11748;-68
2021/11/26 11:25:36;;;;;;;;;47.75;41.50;;;;;9.47;63.22;101571.88;4837112;29;11786;-69
2021/11/26 11:28:32;;;;;;;;;43.25;39.75;;;;;9.64;62.48;101573.25;4837256;29;11739;-68
2021/11/26 11:31:28;;;;;;;;;46.75;42.00;;;;;9.74;62.56;101573.91;4838279;29;11729;-68
2021/11/26 11:34:27;;;;;;;;;46.25;41.00;;;;;9.34;63.16;101571.81;4835917;29;11719;-70
2021/11/26 11:37:29;;;;;;;;;44.75;38.50;;;;;9.37;63.49;101561.00;4835819;29;11856;-69
2021/11/26 11:40:40;;;;;;;;;49.25;42.00;;;;;9.60;63.01;101558.41;4833172;29;11874;-69
2021/11/26 11:43:49;;;;;;;;;39.75;36.50;;;;;9.31;63.23;101564.13;4822320;29;12601;-69
2021/11/26 11:46:45;;;;;;;;;38.25;36.50;;;;;9.58;62.99;101560.63;4839207;29;11737;-68
2021/11/26 11:49:41;;;;;;;;;49.25;42.75;;;;;9.31;63.52;101564.97;4835483;29;11844;-68
2021/11/26 11:52:46;;;;;;;;;41.25;38.25;;;;;8.88;64.92;101561.47;4835310;29;11786;-67
2021/11/26 11:55:42;;;;;;;;;41.75;37.50;;;;;9.04;64.84;101556.56;4835913;29;11690;-67
2021/11/26 11:58:55;;;;;;;;;40.50;39.25;;;;;8.81;65.32;101550.81;4837021;29;11771;-67
2021/11/26 12:01:52;;;;;;;;;44.25;39.50;;;;;8.93;65.23;101557.84;4832318;29;11743;-68
2021/11/26 12:04:48;;;;;;;;;41.00;39.75;;;;;9.04;64.94;101554.59;4838133;29;11863;-67
2021/11/26 12:07:44;;;;;;;;;39.25;32.50;;;;;8.86;65.04;101539.72;4832410;29;11666;-68
2021/11/26 12:11:00;;;;;;;;;44.75;39.75;;;;;8.78;65.98;101528.53;4832365;29;11784;-67
2021/11/26 12:14:05;;;;;;;;;44.75;40.25;;;;;9.09;65.11;101518.66;4835057;29;11780;-67
2021/11/26 12:17:17;;;;;;;;;36.50;35.25;;;;;9.18;64.68;101524.31;4837073;29;11765;-66
2021/11/26 12:20:22;;;;;;;;;40.75;36.00;;;;;9.10;64.22;101523.06;4821314;29;11797;-67
2021/11/26 12:23:27;;;;;;;;;49.00;42.50;;;;;9.16;64.90;101523.81;4837359;29;11733;-67
2021/11/26 12:26:30;;;;;;;;;38.50;37.25;;;;;8.85;65.27;101524.28;4832702;29;11735;-67
2021/11/26 12:29:40;;;;;;;;;43.25;38.75;;;;;8.84;65.30;101516.31;4839429;29;11778;-68
2021/11/26 12:32:36;;;;;;;;;45.75;41.50;;;;;9.02;65.00;101518.22;4832863;29;11758;-67
2021/11/26 12:35:32;;;;;;;;;44.25;40.00;;;;;8.97;64.88;101506.44;4834714;29;11836;-68
2021/11/26 12:38:55;;;;;;;;;40.00;37.75;;;;;8.90;65.53;101502.16;4832356;29;11757;-67
2021/11/26 12:41:57;;;;;;;;;38.50;37.25;;;;;8.95;65.38;101506.75;4834868;29;12583;-67
2021/11/26 12:45:11;;;;;;;;;41.75;39.25;;;;;8.87;65.39;101511.00;4819870;29;11737;-68
2021/11/26 12:48:10;;;;;;;;;46.50;40.50;;;;;8.89;65.58;101513.47;4822172;29;11777;-68
2021/11/26 12:51:06;;;;;;;;;36.75;36.00;;;;;8.77;65.38;101505.66;4819842;29;11901;-68
2021/11/26 12:54:04;;;;;;;;;40.25;38.00;;;;;8.70;65.75;101507.97;4836770;29;11757;-68
2021/11/26 12:57:07;;;;;;;;;31.00;31.00;;;;;8.37;67.04;101501.53;4833737;29;11736;-68
2021/11/26 13:00:09;;;;;;;;;35.75;35.75;;;;;8.61;66.71;101501.47;4837028;29;12435;-68
2021/11/26 13:03:08;;;;;;;;;44.00;40.75;;;;;8.35;67.73;101503.75;4835908;29;11780;-66
2021/11/26 13:06:04;;;;;;;;;41.25;38.75;;;;;8.28;68.35;101495.00;4833034;29;11809;-67
2021/11/26 13:09:08;;;;;;;;;39.75;34.50;;;;;8.05;69.00;101478.22;4834274;29;11731;-67
2021/11/26 13:12:06;;;;;;;;;45.00;41.00;;;;;8.15;69.00;101469.00;4838195;29;11747;-67
2021/11/26 13:15:35;;;;;;;;;35.75;35.00;;;;;7.97;69.87;101467.84;4832424;29;12620;-67
2021/11/26 13:18:34;;;;;;;;;76.50;55.50;;;;;7.70;70.43;101470.38;4837343;29;11785;-67
2021/11/26 13:21:31;;;;;;;;;41.50;37.50;;;;;7.46;71.84;101475.88;4821821;29;11749;-68
2021/11/26 13:24:27;;;;;;;;;39.00;38.00;;;;;7.49;71.47;101476.09;4835896;29;11745;-67
2021/11/26 13:27:23;;;;;;;;;54.00;45.50;;;;;7.57;71.81;101476.56;4839030;29;11768;-67
2021/11/26 13:30:23;;;;;;;;;40.75;37.75;;;;;7.33;72.23;101471.03;4833638;29;11795;-67
2021/11/26 13:33:23;;;;;;;;;55.50;45.00;;;;;7.33;72.10;101469.09;4829837;29;11744;-67
2021/11/26 13:36:22;;;;;;;;;57.25;46.75;;;;;7.15;72.80;101476.16;4832116;29;11799;-67
2021/11/26 13:39:25;;;;;;;;;46.50;43.00;;;;;6.99;73.06;101455.41;4831196;29;12466;-67